sensor_id;sensor_type;location;lat;lon;timestamp;temperature;humidity
39503;DHT22;26970;49.900;10.774;2023-02-26T00:00:16;-2.30;99.90
39503;DHT22;26970;49.900;10.774;2023-02-26T00:02:45;-2.50;99.90
39503;DHT22;26970;49.900;10.774;2023-02-26T00:05:14;-2.00;99.90
39503;DHT22;26970;49.900;10.774;2023-02-26T00:07:40;-2.40;99.90
39503;DHT22;26970;49.900;10.774;2023-02-26T00:10:08;-2.30;99.90
39503;DHT22;26970;49.900;10.774;2023-02-26T00:12:34;-2.40;99.90
39503;DHT22;26970;49.900;10.774;2023-02-26T00:15:01;-2.30;99.90
39503;DHT22;26970;49.900;10.774;2023-02-26T00:20:12;-2.10;99.90
39503;DHT22;26970;49.900;10.774;2023-02-26T00:22:38;-2.40;99.90
39503;DHT22;26970;49.900;10.774;2023-02-26T00:25:04;-2.40;99.90
39503;DHT22;26970;49.900;10.774;2023-02-26T00:27:30;-2.40;99.90
39503;DHT22;26970;49.900;10.774;2023-02-26T00:29:56;-2.40;99.90
39503;DHT22;26970;49.900;10.774;2023-02-26T00:32:22;-2.50;99.90
39503;DHT22;26970;49.900;10.774;2023-02-26T00:34:48;-2.50;99.90
39503;DHT22;26970;49.900;10.774;2023-02-26T00:37:32;-2.50;99.90
39503;DHT22;26970;49.900;10.774;2023-02-26T00:40:16;-2.50;99.90
39503;DHT22;26970;49.900;10.774;2023-02-26T00:42:44;-2.50;99.90
39503;DHT22;26970;49.900;10.774;2023-02-26T00:45:11;-2.50;99.90
39503;DHT22;26970;49.900;10.774;2023-02-26T00:48:13;-2.50;99.90
39503;DHT22;26970;49.900;10.774;2023-02-26T00:50:47;-2.40;99.90
39503;DHT22;26970;49.900;10.774;2023-02-26T00:53:26;-2.50;99.90
39503;DHT22;26970;49.900;10.774;2023-02-26T00:55:53;-2.40;99.90
39503;DHT22;26970;49.900;10.774;2023-02-26T00:58:18;-2.40;99.90
39503;DHT22;26970;49.900;10.774;2023-02-26T01:00:44;-2.10;99.90
39503;DHT22;26970;49.900;10.774;2023-02-26T01:03:10;-2.40;99.90
39503;DHT22;26970;49.900;10.774;2023-02-26T01:05:36;-2.40;99.90
39503;DHT22;26970;49.900;10.774;2023-02-26T01:08:11;-2.40;99.90
39503;DHT22;26970;49.900;10.774;2023-02-26T01:10:38;-2.40;99.90
39503;DHT22;26970;49.900;10.774;2023-02-26T01:13:04;-2.40;99.90
39503;DHT22;26970;49.900;10.774;2023-02-26T01:15:30;-2.40;99.90
39503;DHT22;26970;49.900;10.774;2023-02-26T01:18:15;-2.40;99.90
39503;DHT22;26970;49.900;10.774;2023-02-26T01:20:52;-2.40;99.90
39503;DHT22;26970;49.900;10.774;2023-02-26T01:23:23;-2.40;99.90
39503;DHT22;26970;49.900;10.774;2023-02-26T01:25:54;-2.40;99.90
39503;DHT22;26970;49.900;10.774;2023-02-26T01:28:22;-2.40;99.90
39503;DHT22;26970;49.900;10.774;2023-02-26T01:30:48;-2.40;99.90
39503;DHT22;26970;49.900;10.774;2023-02-26T01:35:54;-2.50;99.90
39503;DHT22;26970;49.900;10.774;2023-02-26T01:41:14;-2.50;99.90
39503;DHT22;26970;49.900;10.774;2023-02-26T01:49:16;-2.50;99.90
39503;DHT22;26970;49.900;10.774;2023-02-26T01:51:50;-2.60;99.90
39503;DHT22;26970;49.900;10.774;2023-02-26T01:54:21;-2.50;99.90
39503;DHT22;26970;49.900;10.774;2023-02-26T01:56:52;-2.50;99.90
39503;DHT22;26970;49.900;10.774;2023-02-26T01:59:19;-2.50;99.90
39503;DHT22;26970;49.900;10.774;2023-02-26T02:01:53;-2.50;99.90
39503;DHT22;26970;49.900;10.774;2023-02-26T02:04:19;-2.50;99.90
39503;DHT22;26970;49.900;10.774;2023-02-26T02:06:45;-2.50;99.90
39503;DHT22;26970;49.900;10.774;2023-02-26T02:09:11;-2.50;99.90
39503;DHT22;26970;49.900;10.774;2023-02-26T02:17:12;-2.50;99.90
39503;DHT22;26970;49.900;10.774;2023-02-26T02:34:06;-2.60;99.90
39503;DHT22;26970;49.900;10.774;2023-02-26T02:36:54;-2.60;99.90
39503;DHT22;26970;49.900;10.774;2023-02-26T02:39:27;-2.60;99.90
39503;DHT22;26970;49.900;10.774;2023-02-26T02:44:31;-2.50;99.90
39503;DHT22;26970;49.900;10.774;2023-02-26T02:46:59;-2.50;99.90
39503;DHT22;26970;49.900;10.774;2023-02-26T02:49:41;-2.50;99.90
39503;DHT22;26970;49.900;10.774;2023-02-26T02:54:48;-2.60;99.90
39503;DHT22;26970;49.900;10.774;2023-02-26T02:57:35;-2.60;99.90
39503;DHT22;26970;49.900;10.774;2023-02-26T03:00:10;-2.60;99.90
39503;DHT22;26970;49.900;10.774;2023-02-26T03:05:01;-2.70;99.90
39503;DHT22;26970;49.900;10.774;2023-02-26T03:07:30;-2.70;99.90
39503;DHT22;26970;49.900;10.774;2023-02-26T03:09:56;-2.70;99.90
39503;DHT22;26970;49.900;10.774;2023-02-26T03:12:25;-2.70;99.90
39503;DHT22;26970;49.900;10.774;2023-02-26T03:14:51;-2.70;99.90
39503;DHT22;26970;49.900;10.774;2023-02-26T03:17:26;-2.70;99.90
39503;DHT22;26970;49.900;10.774;2023-02-26T03:20:16;-2.70;99.90
39503;DHT22;26970;49.900;10.774;2023-02-26T03:25:28;-2.50;99.90
39503;DHT22;26970;49.900;10.774;2023-02-26T03:33:14;-2.60;99.90
39503;DHT22;26970;49.900;10.774;2023-02-26T03:35:58;-2.60;99.90
39503;DHT22;26970;49.900;10.774;2023-02-26T03:41:03;-2.60;99.90
39503;DHT22;26970;49.900;10.774;2023-02-26T03:43:47;-2.30;99.90
39503;DHT22;26970;49.900;10.774;2023-02-26T03:46:19;-2.60;99.90
39503;DHT22;26970;49.900;10.774;2023-02-26T03:48:49;-2.60;99.90
39503;DHT22;26970;49.900;10.774;2023-02-26T03:51:17;-2.60;99.90
39503;DHT22;26970;49.900;10.774;2023-02-26T03:53:52;-2.30;99.90
39503;DHT22;26970;49.900;10.774;2023-02-26T03:56:27;-2.50;99.90
39503;DHT22;26970;49.900;10.774;2023-02-26T03:58:54;-2.30;99.90
39503;DHT22;26970;49.900;10.774;2023-02-26T04:01:32;-2.40;99.90
39503;DHT22;26970;49.900;10.774;2023-02-26T04:06:47;-2.50;99.90
39503;DHT22;26970;49.900;10.774;2023-02-26T04:09:13;-2.40;99.90
39503;DHT22;26970;49.900;10.774;2023-02-26T04:11:39;-2.00;99.90
39503;DHT22;26970;49.900;10.774;2023-02-26T04:14:05;-2.40;99.90
39503;DHT22;26970;49.900;10.774;2023-02-26T04:16:31;-2.40;99.90
39503;DHT22;26970;49.900;10.774;2023-02-26T04:18:57;-2.40;99.90
39503;DHT22;26970;49.900;10.774;2023-02-26T04:21:22;-2.40;99.90
39503;DHT22;26970;49.900;10.774;2023-02-26T04:23:48;-1.60;99.90
39503;DHT22;26970;49.900;10.774;2023-02-26T04:26:14;-2.40;99.90
39503;DHT22;26970;49.900;10.774;2023-02-26T04:28:40;-2.40;99.90
39503;DHT22;26970;49.900;10.774;2023-02-26T04:31:06;-2.40;99.90
39503;DHT22;26970;49.900;10.774;2023-02-26T04:33:32;-2.00;99.90
39503;DHT22;26970;49.900;10.774;2023-02-26T04:35:59;-2.40;99.90
39503;DHT22;26970;49.900;10.774;2023-02-26T04:38:25;-2.40;99.90
39503;DHT22;26970;49.900;10.774;2023-02-26T04:40:51;-2.40;99.90
39503;DHT22;26970;49.900;10.774;2023-02-26T04:43:17;-2.40;99.90
39503;DHT22;26970;49.900;10.774;2023-02-26T04:45:46;-2.40;99.90
39503;DHT22;26970;49.900;10.774;2023-02-26T04:48:13;-2.40;99.90
39503;DHT22;26970;49.900;10.774;2023-02-26T04:50:39;-2.40;99.90
39503;DHT22;26970;49.900;10.774;2023-02-26T04:53:04;-2.40;99.90
39503;DHT22;26970;49.900;10.774;2023-02-26T04:55:30;-2.40;99.90
39503;DHT22;26970;49.900;10.774;2023-02-26T04:57:56;-2.30;99.90
39503;DHT22;26970;49.900;10.774;2023-02-26T05:00:21;-2.30;99.90
39503;DHT22;26970;49.900;10.774;2023-02-26T05:02:47;-1.40;99.90
39503;DHT22;26970;49.900;10.774;2023-02-26T05:05:12;-2.50;99.90
39503;DHT22;26970;49.900;10.774;2023-02-26T05:07:38;-1.90;99.90
39503;DHT22;26970;49.900;10.774;2023-02-26T05:10:05;-2.20;99.90
39503;DHT22;26970;49.900;10.774;2023-02-26T05:12:31;-2.30;99.90
39503;DHT22;26970;49.900;10.774;2023-02-26T05:14:58;-2.30;99.90
39503;DHT22;26970;49.900;10.774;2023-02-26T05:17:23;-2.20;99.90
39503;DHT22;26970;49.900;10.774;2023-02-26T05:19:49;-2.20;99.90
39503;DHT22;26970;49.900;10.774;2023-02-26T05:22:15;-2.20;99.90
39503;DHT22;26970;49.900;10.774;2023-02-26T05:24:40;-2.30;99.90
39503;DHT22;26970;49.900;10.774;2023-02-26T05:27:06;-2.30;99.90
39503;DHT22;26970;49.900;10.774;2023-02-26T05:29:31;-2.30;99.90
39503;DHT22;26970;49.900;10.774;2023-02-26T05:31:57;-2.30;99.90
39503;DHT22;26970;49.900;10.774;2023-02-26T05:34:23;-2.30;99.90
39503;DHT22;26970;49.900;10.774;2023-02-26T05:36:48;-2.00;99.90
39503;DHT22;26970;49.900;10.774;2023-02-26T05:39:14;-2.30;99.90
39503;DHT22;26970;49.900;10.774;2023-02-26T05:41:40;-2.20;99.90
39503;DHT22;26970;49.900;10.774;2023-02-26T05:44:05;-2.20;99.90
39503;DHT22;26970;49.900;10.774;2023-02-26T05:46:32;-2.20;99.90
39503;DHT22;26970;49.900;10.774;2023-02-26T05:48:58;-2.20;99.90
39503;DHT22;26970;49.900;10.774;2023-02-26T05:51:23;-2.20;99.90
39503;DHT22;26970;49.900;10.774;2023-02-26T05:53:49;-2.20;99.90
39503;DHT22;26970;49.900;10.774;2023-02-26T05:56:15;-2.10;99.90
39503;DHT22;26970;49.900;10.774;2023-02-26T05:58:41;-2.10;99.90
39503;DHT22;26970;49.900;10.774;2023-02-26T06:01:06;-2.10;99.90
39503;DHT22;26970;49.900;10.774;2023-02-26T06:03:32;-2.10;99.90
39503;DHT22;26970;49.900;10.774;2023-02-26T06:05:57;-2.00;99.90
39503;DHT22;26970;49.900;10.774;2023-02-26T06:08:23;-1.90;99.90
39503;DHT22;26970;49.900;10.774;2023-02-26T06:10:49;-2.00;99.90
39503;DHT22;26970;49.900;10.774;2023-02-26T06:13:15;-2.00;99.90
39503;DHT22;26970;49.900;10.774;2023-02-26T06:15:41;-2.00;99.90
39503;DHT22;26970;49.900;10.774;2023-02-26T06:18:07;-2.00;99.90
39503;DHT22;26970;49.900;10.774;2023-02-26T06:20:33;-1.30;99.90
39503;DHT22;26970;49.900;10.774;2023-02-26T06:22:59;-2.00;99.90
39503;DHT22;26970;49.900;10.774;2023-02-26T06:25:24;-1.00;99.90
39503;DHT22;26970;49.900;10.774;2023-02-26T06:27:50;-2.00;99.90
39503;DHT22;26970;49.900;10.774;2023-02-26T06:30:16;-1.50;99.90
39503;DHT22;26970;49.900;10.774;2023-02-26T06:32:42;-2.00;99.90
39503;DHT22;26970;49.900;10.774;2023-02-26T06:35:09;-2.00;99.90
39503;DHT22;26970;49.900;10.774;2023-02-26T06:37:35;-1.90;99.90
39503;DHT22;26970;49.900;10.774;2023-02-26T06:40:02;-1.90;99.90
39503;DHT22;26970;49.900;10.774;2023-02-26T06:42:28;-1.90;99.90
39503;DHT22;26970;49.900;10.774;2023-02-26T06:44:53;-1.90;99.90
39503;DHT22;26970;49.900;10.774;2023-02-26T06:47:19;-1.90;99.90
39503;DHT22;26970;49.900;10.774;2023-02-26T06:49:45;-1.90;99.90
39503;DHT22;26970;49.900;10.774;2023-02-26T06:52:10;-1.90;99.90
39503;DHT22;26970;49.900;10.774;2023-02-26T06:54:36;-1.80;99.90
39503;DHT22;26970;49.900;10.774;2023-02-26T06:57:01;-1.80;99.90
39503;DHT22;26970;49.900;10.774;2023-02-26T06:59:27;-1.80;99.90
39503;DHT22;26970;49.900;10.774;2023-02-26T07:01:53;-1.50;99.90
39503;DHT22;26970;49.900;10.774;2023-02-26T07:04:19;-1.20;99.90
39503;DHT22;26970;49.900;10.774;2023-02-26T07:06:44;-1.00;99.90
39503;DHT22;26970;49.900;10.774;2023-02-26T07:09:10;-1.70;99.90
39503;DHT22;26970;49.900;10.774;2023-02-26T07:11:35;-1.80;99.90
39503;DHT22;26970;49.900;10.774;2023-02-26T07:14:01;-1.40;99.90
39503;DHT22;26970;49.900;10.774;2023-02-26T07:16:27;-1.80;99.90
39503;DHT22;26970;49.900;10.774;2023-02-26T07:18:52;-1.80;99.90
39503;DHT22;26970;49.900;10.774;2023-02-26T07:21:18;-0.10;99.90
39503;DHT22;26970;49.900;10.774;2023-02-26T07:23:43;-1.80;99.90
39503;DHT22;26970;49.900;10.774;2023-02-26T07:26:09;-1.80;99.90
39503;DHT22;26970;49.900;10.774;2023-02-26T07:28:35;-1.70;99.90
39503;DHT22;26970;49.900;10.774;2023-02-26T07:31:00;-1.70;99.90
39503;DHT22;26970;49.900;10.774;2023-02-26T07:33:26;-1.70;99.90
39503;DHT22;26970;49.900;10.774;2023-02-26T07:35:53;-0.80;99.90
39503;DHT22;26970;49.900;10.774;2023-02-26T07:38:19;-1.70;99.90
39503;DHT22;26970;49.900;10.774;2023-02-26T07:40:46;-1.70;99.90
39503;DHT22;26970;49.900;10.774;2023-02-26T07:43:11;-1.60;99.90
39503;DHT22;26970;49.900;10.774;2023-02-26T07:45:37;-1.00;99.90
39503;DHT22;26970;49.900;10.774;2023-02-26T07:48:02;-1.60;99.90
39503;DHT22;26970;49.900;10.774;2023-02-26T07:50:28;-1.50;99.90
39503;DHT22;26970;49.900;10.774;2023-02-26T07:52:54;-1.40;99.90
39503;DHT22;26970;49.900;10.774;2023-02-26T07:55:20;-1.40;99.90
39503;DHT22;26970;49.900;10.774;2023-02-26T07:57:46;-1.40;99.90
39503;DHT22;26970;49.900;10.774;2023-02-26T08:00:13;-1.40;99.90
39503;DHT22;26970;49.900;10.774;2023-02-26T08:02:39;-1.40;99.90
39503;DHT22;26970;49.900;10.774;2023-02-26T08:05:05;-1.40;99.90
39503;DHT22;26970;49.900;10.774;2023-02-26T08:07:32;-1.40;99.90
39503;DHT22;26970;49.900;10.774;2023-02-26T08:09:57;-1.30;99.90
39503;DHT22;26970;49.900;10.774;2023-02-26T08:12:23;-1.30;99.90
39503;DHT22;26970;49.900;10.774;2023-02-26T08:14:49;-0.60;99.90
39503;DHT22;26970;49.900;10.774;2023-02-26T08:17:14;-1.20;99.90
39503;DHT22;26970;49.900;10.774;2023-02-26T08:19:40;-1.20;99.90
39503;DHT22;26970;49.900;10.774;2023-02-26T08:22:06;-1.20;99.90
39503;DHT22;26970;49.900;10.774;2023-02-26T08:24:32;-0.60;99.90
39503;DHT22;26970;49.900;10.774;2023-02-26T08:26:57;-1.00;99.90
39503;DHT22;26970;49.900;10.774;2023-02-26T08:29:23;-0.90;99.90
39503;DHT22;26970;49.900;10.774;2023-02-26T08:31:49;-0.60;99.90
39503;DHT22;26970;49.900;10.774;2023-02-26T08:34:15;-0.40;99.90
39503;DHT22;26970;49.900;10.774;2023-02-26T08:36:40;-0.50;99.90
39503;DHT22;26970;49.900;10.774;2023-02-26T08:39:06;-0.60;99.90
39503;DHT22;26970;49.900;10.774;2023-02-26T08:41:32;-0.70;99.90
39503;DHT22;26970;49.900;10.774;2023-02-26T08:43:58;-0.30;99.90
39503;DHT22;26970;49.900;10.774;2023-02-26T08:46:24;-0.30;99.90
39503;DHT22;26970;49.900;10.774;2023-02-26T08:48:50;0.10;99.90
39503;DHT22;26970;49.900;10.774;2023-02-26T08:51:15;-0.30;99.90
39503;DHT22;26970;49.900;10.774;2023-02-26T08:53:43;0.10;99.90
39503;DHT22;26970;49.900;10.774;2023-02-26T08:56:11;-0.40;99.90
39503;DHT22;26970;49.900;10.774;2023-02-26T08:58:36;-0.10;99.90
39503;DHT22;26970;49.900;10.774;2023-02-26T09:01:02;-0.40;99.90
39503;DHT22;26970;49.900;10.774;2023-02-26T09:03:27;-0.50;99.90
39503;DHT22;26970;49.900;10.774;2023-02-26T09:05:53;-0.10;99.90
39503;DHT22;26970;49.900;10.774;2023-02-26T09:08:18;-0.60;99.90
39503;DHT22;26970;49.900;10.774;2023-02-26T09:10:45;-0.20;99.90
39503;DHT22;26970;49.900;10.774;2023-02-26T09:13:11;-0.50;99.90
39503;DHT22;26970;49.900;10.774;2023-02-26T09:15:37;-0.10;99.90
39503;DHT22;26970;49.900;10.774;2023-02-26T09:18:03;-0.40;99.90
39503;DHT22;26970;49.900;10.774;2023-02-26T09:20:29;-0.40;99.90
39503;DHT22;26970;49.900;10.774;2023-02-26T09:22:55;-0.50;99.90
39503;DHT22;26970;49.900;10.774;2023-02-26T09:25:21;-0.20;99.90
39503;DHT22;26970;49.900;10.774;2023-02-26T09:27:48;-0.40;99.90
39503;DHT22;26970;49.900;10.774;2023-02-26T09:30:14;0.10;99.90
39503;DHT22;26970;49.900;10.774;2023-02-26T09:32:40;-0.50;99.90
39503;DHT22;26970;49.900;10.774;2023-02-26T09:35:06;-0.50;99.90
39503;DHT22;26970;49.900;10.774;2023-02-26T09:37:32;-1.30;99.90
39503;DHT22;26970;49.900;10.774;2023-02-26T09:39:58;-0.10;99.90
39503;DHT22;26970;49.900;10.774;2023-02-26T09:42:56;-0.30;99.90
39503;DHT22;26970;49.900;10.774;2023-02-26T09:45:29;-0.40;99.90
39503;DHT22;26970;49.900;10.774;2023-02-26T09:47:56;-0.40;99.90
39503;DHT22;26970;49.900;10.774;2023-02-26T09:50:40;-0.10;99.90
39503;DHT22;26970;49.900;10.774;2023-02-26T09:53:26;-0.50;99.90
39503;DHT22;26970;49.900;10.774;2023-02-26T09:55:55;-0.50;99.90
39503;DHT22;26970;49.900;10.774;2023-02-26T09:58:27;0.40;99.90
39503;DHT22;26970;49.900;10.774;2023-02-26T10:17:02;-0.20;99.90
39503;DHT22;26970;49.900;10.774;2023-02-26T10:19:34;0.10;99.90
39503;DHT22;26970;49.900;10.774;2023-02-26T10:22:39;0.40;99.90
39503;DHT22;26970;49.900;10.774;2023-02-26T10:25:12;0.60;99.90
39503;DHT22;26970;49.900;10.774;2023-02-26T10:30:15;0.30;99.90
39503;DHT22;26970;49.900;10.774;2023-02-26T10:32:58;0.20;99.90
39503;DHT22;26970;49.900;10.774;2023-02-26T10:35:28;-0.10;99.90
39503;DHT22;26970;49.900;10.774;2023-02-26T10:37:59;0.10;99.90
39503;DHT22;26970;49.900;10.774;2023-02-26T10:40:38;0.00;99.90
39503;DHT22;26970;49.900;10.774;2023-02-26T10:43:20;0.10;99.90
39503;DHT22;26970;49.900;10.774;2023-02-26T10:51:27;0.20;99.90
39503;DHT22;26970;49.900;10.774;2023-02-26T10:53:59;0.90;99.90
39503;DHT22;26970;49.900;10.774;2023-02-26T10:56:30;0.80;99.90
39503;DHT22;26970;49.900;10.774;2023-02-26T10:58:56;0.50;99.90
39503;DHT22;26970;49.900;10.774;2023-02-26T11:01:24;0.80;99.90
39503;DHT22;26970;49.900;10.774;2023-02-26T11:03:57;0.80;99.90
39503;DHT22;26970;49.900;10.774;2023-02-26T11:06:27;0.90;99.90
39503;DHT22;26970;49.900;10.774;2023-02-26T11:08:55;0.80;99.90
39503;DHT22;26970;49.900;10.774;2023-02-26T11:14:07;0.60;99.90
39503;DHT22;26970;49.900;10.774;2023-02-26T11:16:34;0.50;99.90
39503;DHT22;26970;49.900;10.774;2023-02-26T11:19:00;0.40;99.90
39503;DHT22;26970;49.900;10.774;2023-02-26T11:21:34;0.30;99.90
39503;DHT22;26970;49.900;10.774;2023-02-26T11:24:18;0.30;99.90
39503;DHT22;26970;49.900;10.774;2023-02-26T11:26:48;0.40;99.90
39503;DHT22;26970;49.900;10.774;2023-02-26T11:29:18;0.60;99.90
39503;DHT22;26970;49.900;10.774;2023-02-26T11:31:47;0.60;99.90
39503;DHT22;26970;49.900;10.774;2023-02-26T11:34:14;0.40;99.90
39503;DHT22;26970;49.900;10.774;2023-02-26T11:36:43;0.40;99.90
39503;DHT22;26970;49.900;10.774;2023-02-26T11:39:22;0.30;99.90
39503;DHT22;26970;49.900;10.774;2023-02-26T11:41:50;0.30;99.90
39503;DHT22;26970;49.900;10.774;2023-02-26T11:44:20;0.50;99.90
39503;DHT22;26970;49.900;10.774;2023-02-26T11:46:52;0.50;99.90
39503;DHT22;26970;49.900;10.774;2023-02-26T11:49:23;0.40;99.90
39503;DHT22;26970;49.900;10.774;2023-02-26T11:52:13;0.40;99.90
39503;DHT22;26970;49.900;10.774;2023-02-26T11:54:43;0.30;99.90
39503;DHT22;26970;49.900;10.774;2023-02-26T11:57:23;0.90;99.90
39503;DHT22;26970;49.900;10.774;2023-02-26T11:59:52;1.00;99.90
39503;DHT22;26970;49.900;10.774;2023-02-26T12:02:20;1.60;99.90
39503;DHT22;26970;49.900;10.774;2023-02-26T12:04:50;0.20;99.90
39503;DHT22;26970;49.900;10.774;2023-02-26T12:07:17;0.30;99.90
39503;DHT22;26970;49.900;10.774;2023-02-26T12:09:44;-0.20;99.90
39503;DHT22;26970;49.900;10.774;2023-02-26T12:12:40;0.90;99.90
39503;DHT22;26970;49.900;10.774;2023-02-26T12:17:56;0.50;99.90
39503;DHT22;26970;49.900;10.774;2023-02-26T12:26:02;1.20;99.90
39503;DHT22;26970;49.900;10.774;2023-02-26T12:34:26;0.50;99.90
39503;DHT22;26970;49.900;10.774;2023-02-26T12:37:25;0.50;99.90
39503;DHT22;26970;49.900;10.774;2023-02-26T12:45:26;0.60;99.90
39503;DHT22;26970;49.900;10.774;2023-02-26T12:48:27;0.50;99.90
39503;DHT22;26970;49.900;10.774;2023-02-26T12:53:58;0.50;99.90
39503;DHT22;26970;49.900;10.774;2023-02-26T12:56:41;0.70;99.90
39503;DHT22;26970;49.900;10.774;2023-02-26T12:59:53;0.80;99.90
39503;DHT22;26970;49.900;10.774;2023-02-26T13:02:27;0.80;99.90
39503;DHT22;26970;49.900;10.774;2023-02-26T13:05:13;0.70;99.90
39503;DHT22;26970;49.900;10.774;2023-02-26T13:16:30;0.70;99.90
39503;DHT22;26970;49.900;10.774;2023-02-26T13:22:10;0.80;99.90
39503;DHT22;26970;49.900;10.774;2023-02-26T13:24:45;1.00;99.90
39503;DHT22;26970;49.900;10.774;2023-02-26T13:27:13;1.10;99.90
39503;DHT22;26970;49.900;10.774;2023-02-26T13:29:47;1.10;99.90
39503;DHT22;26970;49.900;10.774;2023-02-26T13:32:18;1.60;99.90
39503;DHT22;26970;49.900;10.774;2023-02-26T13:35:20;1.20;99.90
39503;DHT22;26970;49.900;10.774;2023-02-26T13:37:53;1.10;99.90
39503;DHT22;26970;49.900;10.774;2023-02-26T13:40:51;1.10;99.90
39503;DHT22;26970;49.900;10.774;2023-02-26T13:51:43;1.10;99.90
39503;DHT22;26970;49.900;10.774;2023-02-26T13:57:08;1.40;99.90
39503;DHT22;26970;49.900;10.774;2023-02-26T14:02:54;0.80;99.90
39503;DHT22;26970;49.900;10.774;2023-02-26T14:18:36;0.60;99.90
39503;DHT22;26970;49.900;10.774;2023-02-26T14:23:49;1.00;99.90
39503;DHT22;26970;49.900;10.774;2023-02-26T14:26:18;1.10;99.90
39503;DHT22;26970;49.900;10.774;2023-02-26T14:28:55;1.10;99.90
39503;DHT22;26970;49.900;10.774;2023-02-26T14:31:23;1.10;99.90
39503;DHT22;26970;49.900;10.774;2023-02-26T14:36:44;0.80;99.90
39503;DHT22;26970;49.900;10.774;2023-02-26T14:39:39;0.70;99.90
39503;DHT22;26970;49.900;10.774;2023-02-26T14:42:10;0.60;99.90
39503;DHT22;26970;49.900;10.774;2023-02-26T14:44:43;0.50;99.90
39503;DHT22;26970;49.900;10.774;2023-02-26T14:47:10;0.50;99.90
39503;DHT22;26970;49.900;10.774;2023-02-26T14:49:39;0.40;99.90
39503;DHT22;26970;49.900;10.774;2023-02-26T14:52:30;0.30;99.90
39503;DHT22;26970;49.900;10.774;2023-02-26T14:57:46;0.40;99.90
39503;DHT22;26970;49.900;10.774;2023-02-26T15:02:50;0.80;99.90
39503;DHT22;26970;49.900;10.774;2023-02-26T15:06:00;0.80;99.90
39503;DHT22;26970;49.900;10.774;2023-02-26T15:11:51;0.80;99.90
39503;DHT22;26970;49.900;10.774;2023-02-26T15:14:43;0.70;99.90
39503;DHT22;26970;49.900;10.774;2023-02-26T15:20:51;0.60;99.90
39503;DHT22;26970;49.900;10.774;2023-02-26T15:25:50;0.50;99.90
39503;DHT22;26970;49.900;10.774;2023-02-26T15:28:37;0.40;99.90
39503;DHT22;26970;49.900;10.774;2023-02-26T15:31:05;0.30;99.90
39503;DHT22;26970;49.900;10.774;2023-02-26T15:33:32;1.20;99.90
39503;DHT22;26970;49.900;10.774;2023-02-26T15:35:59;0.30;99.90
39503;DHT22;26970;49.900;10.774;2023-02-26T15:38:25;0.70;99.90
39503;DHT22;26970;49.900;10.774;2023-02-26T15:40:53;1.60;99.90
39503;DHT22;26970;49.900;10.774;2023-02-26T15:43:24;1.60;99.90
39503;DHT22;26970;49.900;10.774;2023-02-26T15:45:53;0.30;99.90
39503;DHT22;26970;49.900;10.774;2023-02-26T15:48:37;0.30;99.90
39503;DHT22;26970;49.900;10.774;2023-02-26T15:51:08;0.70;99.90
39503;DHT22;26970;49.900;10.774;2023-02-26T15:53:37;0.30;99.90
39503;DHT22;26970;49.900;10.774;2023-02-26T15:56:08;0.20;99.90
39503;DHT22;26970;49.900;10.774;2023-02-26T15:58:44;0.20;99.90
39503;DHT22;26970;49.900;10.774;2023-02-26T16:01:23;0.20;99.90
39503;DHT22;26970;49.900;10.774;2023-02-26T16:03:52;0.20;99.90
39503;DHT22;26970;49.900;10.774;2023-02-26T16:06:24;0.20;99.90
39503;DHT22;26970;49.900;10.774;2023-02-26T16:08:50;0.10;99.90
39503;DHT22;26970;49.900;10.774;2023-02-26T16:11:16;1.10;99.90
39503;DHT22;26970;49.900;10.774;2023-02-26T16:13:43;0.00;99.90
39503;DHT22;26970;49.900;10.774;2023-02-26T16:16:17;0.20;99.90
39503;DHT22;26970;49.900;10.774;2023-02-26T16:18:45;0.00;99.90
39503;DHT22;26970;49.900;10.774;2023-02-26T16:21:22;-0.10;99.90
39503;DHT22;26970;49.900;10.774;2023-02-26T16:23:53;-0.20;99.90
39503;DHT22;26970;49.900;10.774;2023-02-26T16:26:26;-0.20;99.90
39503;DHT22;26970;49.900;10.774;2023-02-26T16:29:17;-0.30;99.90
39503;DHT22;26970;49.900;10.774;2023-02-26T16:31:42;0.20;99.90
39503;DHT22;26970;49.900;10.774;2023-02-26T16:34:27;-0.40;99.90
39503;DHT22;26970;49.900;10.774;2023-02-26T16:36:53;-0.40;99.90
39503;DHT22;26970;49.900;10.774;2023-02-26T16:39:29;-0.40;99.90
39503;DHT22;26970;49.900;10.774;2023-02-26T16:42:08;-0.40;99.90
39503;DHT22;26970;49.900;10.774;2023-02-26T16:44:39;0.00;99.90
39503;DHT22;26970;49.900;10.774;2023-02-26T16:47:08;-0.60;99.90
39503;DHT22;26970;49.900;10.774;2023-02-26T16:49:36;-0.60;99.90
39503;DHT22;26970;49.900;10.774;2023-02-26T16:52:03;-0.60;99.90
39503;DHT22;26970;49.900;10.774;2023-02-26T16:54:34;-0.20;99.90
39503;DHT22;26970;49.900;10.774;2023-02-26T16:57:17;-0.20;99.90
39503;DHT22;26970;49.900;10.774;2023-02-26T16:59:48;-0.70;99.90
39503;DHT22;26970;49.900;10.774;2023-02-26T17:02:22;-0.80;99.90
39503;DHT22;26970;49.900;10.774;2023-02-26T17:04:58;-0.70;99.90
39503;DHT22;26970;49.900;10.774;2023-02-26T17:09:56;-0.80;99.90
39503;DHT22;26970;49.900;10.774;2023-02-26T17:12:39;-0.70;99.90
39503;DHT22;26970;49.900;10.774;2023-02-26T17:15:15;-0.80;99.90
39503;DHT22;26970;49.900;10.774;2023-02-26T17:17:41;-0.80;99.90
39503;DHT22;26970;49.900;10.774;2023-02-26T17:20:08;-0.90;99.90
39503;DHT22;26970;49.900;10.774;2023-02-26T17:22:34;-1.00;99.90
39503;DHT22;26970;49.900;10.774;2023-02-26T17:25:00;-1.00;99.90
39503;DHT22;26970;49.900;10.774;2023-02-26T17:27:29;-1.00;99.90
39503;DHT22;26970;49.900;10.774;2023-02-26T17:29:56;0.00;99.90
39503;DHT22;26970;49.900;10.774;2023-02-26T17:32:24;-0.90;99.90
39503;DHT22;26970;49.900;10.774;2023-02-26T17:34:51;-1.00;99.90
39503;DHT22;26970;49.900;10.774;2023-02-26T17:37:17;-0.70;99.90
39503;DHT22;26970;49.900;10.774;2023-02-26T17:39:44;-1.00;99.90
39503;DHT22;26970;49.900;10.774;2023-02-26T17:42:15;-1.00;99.90
39503;DHT22;26970;49.900;10.774;2023-02-26T17:44:41;-0.90;99.90
39503;DHT22;26970;49.900;10.774;2023-02-26T17:47:14;-0.90;99.90
39503;DHT22;26970;49.900;10.774;2023-02-26T17:49:41;-1.00;99.90
39503;DHT22;26970;49.900;10.774;2023-02-26T17:52:07;-1.00;99.90
39503;DHT22;26970;49.900;10.774;2023-02-26T17:54:32;-1.10;99.90
39503;DHT22;26970;49.900;10.774;2023-02-26T17:56:58;-1.10;99.90
39503;DHT22;26970;49.900;10.774;2023-02-26T17:59:24;-1.10;99.90
39503;DHT22;26970;49.900;10.774;2023-02-26T18:01:50;-1.10;99.90
39503;DHT22;26970;49.900;10.774;2023-02-26T18:04:15;-1.20;99.90
39503;DHT22;26970;49.900;10.774;2023-02-26T18:06:41;-0.20;99.90
39503;DHT22;26970;49.900;10.774;2023-02-26T18:09:10;-1.10;99.90
39503;DHT22;26970;49.900;10.774;2023-02-26T18:11:36;-1.20;99.90
39503;DHT22;26970;49.900;10.774;2023-02-26T18:14:02;-1.10;99.90
39503;DHT22;26970;49.900;10.774;2023-02-26T18:16:35;-1.10;99.90
39503;DHT22;26970;49.900;10.774;2023-02-26T18:19:01;-1.30;99.90
39503;DHT22;26970;49.900;10.774;2023-02-26T18:21:27;-1.30;99.90
39503;DHT22;26970;49.900;10.774;2023-02-26T18:23:53;-1.10;99.90